Time;durP1;ratioP1;P1;durP2;ratioP2;P2;SDS_P1;SDS_P2;PMS_P1;PMS_P2;Temp;Humidity;BMP_temperature;BMP_pressure;BME280_temperature;BME280_humidity;BME280_pressure;Samples;Min_cycle;Max_cycle;Signal;HPM_P1;HPM_P2
2023/05/26 00:00:59;;;;;;;29.70;4.30;;;8.80;99.90;;;;;;4948893;28;20043;-76
2023/05/26 00:03:28;;;;;;;23.98;4.80;;;8.80;99.90;;;;;;4962680;28;20047;-76
2023/05/26 00:05:54;;;;;;;21.85;3.92;;;8.80;99.90;;;;;;4959862;28;20046;-76
2023/05/26 00:08:21;;;;;;;22.75;4.13;;;8.80;99.90;;;;;;4931629;29;20175;-76
2023/05/26 00:10:47;;;;;;;28.25;4.60;;;8.80;99.90;;;;;;4948329;28;20058;-76
2023/05/26 00:13:13;;;;;;;26.17;4.25;;;8.70;99.90;;;;;;4947531;29;20042;-76
2023/05/26 00:15:38;;;;;;;34.15;4.32;;;8.70;99.90;;;;;;4946193;29;20580;-76
2023/05/26 00:18:05;;;;;;;23.92;3.95;;;9.10;99.90;;;;;;4924898;28;20043;-76
2023/05/26 00:20:31;;;;;;;24.40;4.50;;;8.70;99.90;;;;;;4946355;29;20436;-75
2023/05/26 00:22:56;;;;;;;28.88;4.57;;;8.70;99.90;;;;;;4964718;28;20062;-76
2023/05/26 00:25:23;;;;;;;31.23;4.30;;;8.70;99.90;;;;;;4947301;28;20062;-75
2023/05/26 00:27:49;;;;;;;17.35;3.47;;;8.60;99.90;;;;;;4950005;28;20043;-76
2023/05/26 00:30:15;;;;;;;26.52;3.60;;;8.60;99.90;;;;;;4947118;29;20408;-75
2023/05/26 00:32:41;;;;;;;25.00;4.53;;;8.60;99.90;;;;;;4963779;28;20051;-76
2023/05/26 00:35:07;;;;;;;29.30;4.45;;;8.60;99.90;;;;;;4948191;29;20059;-76
2023/05/26 00:37:32;;;;;;;26.25;4.97;;;8.50;99.90;;;;;;4947659;29;20134;-76
2023/05/26 00:39:58;;;;;;;27.77;4.47;;;8.50;99.90;;;;;;4947680;29;20051;-76
2023/05/26 00:42:24;;;;;;;30.08;5.00;;;8.50;99.90;;;;;;4948174;28;20087;-75
2023/05/26 00:44:51;;;;;;;18.27;3.78;;;8.90;99.90;;;;;;4963135;28;20741;-76
2023/05/26 00:47:17;;;;;;;31.52;5.13;;;8.50;99.90;;;;;;4946983;29;20052;-76
2023/05/26 00:49:44;;;;;;;27.45;4.00;;;8.40;99.90;;;;;;4948831;29;20419;-77
2023/05/26 00:52:11;;;;;;;30.23;5.82;;;9.00;99.90;;;;;;4948764;28;20158;-78
2023/05/26 00:54:39;;;;;;;30.25;4.45;;;8.40;99.90;;;;;;4947818;29;20412;-77
2023/05/26 00:57:06;;;;;;;30.08;4.57;;;8.40;99.90;;;;;;4951896;28;20043;-77
2023/05/26 00:59:32;;;;;;;21.55;4.30;;;8.40;99.90;;;;;;4928347;29;20051;-77
2023/05/26 01:01:59;;;;;;;22.25;3.85;;;8.40;99.90;;;;;;4937477;29;20435;-80
2023/05/26 01:04:25;;;;;;;25.50;3.80;;;8.40;99.90;;;;;;4931097;29;20047;-79
2023/05/26 01:06:52;;;;;;;26.70;3.72;;;8.40;99.90;;;;;;4945871;28;20050;-79
2023/05/26 01:09:18;;;;;;;23.98;3.63;;;8.40;99.90;;;;;;4955107;28;20069;-79
2023/05/26 01:12:07;;;;;;;23.85;4.07;;;8.60;99.90;;;;;;4952797;28;20108;-79
2023/05/26 01:15:00;;;;;;;31.00;3.97;;;8.30;99.90;;;;;;4972182;28;20078;-79
2023/05/26 01:17:39;;;;;;;30.50;4.18;;;8.30;99.90;;;;;;4951716;28;20239;-79
2023/05/26 01:20:13;;;;;;;23.23;3.92;;;8.30;99.90;;;;;;4948728;28;20039;-77
2023/05/26 01:22:50;;;;;;;30.20;4.65;;;8.20;99.90;;;;;;4951435;28;20086;-76
2023/05/26 01:25:35;;;;;;;28.55;4.72;;;8.20;99.90;;;;;;4967757;28;20113;-76
2023/05/26 01:28:32;;;;;;;26.70;4.55;;;8.20;99.90;;;;;;4967146;28;20122;-77
2023/05/26 01:30:59;;;;;;;20.45;4.45;;;8.20;99.90;;;;;;4953941;28;20464;-77
2023/05/26 01:33:25;;;;;;;22.98;4.53;;;8.60;99.90;;;;;;4930243;29;20047;-76
2023/05/26 01:35:50;;;;;;;23.50;4.13;;;8.10;99.90;;;;;;4942030;29;20035;-77
2023/05/26 01:38:17;;;;;;;30.05;4.35;;;8.10;99.90;;;;;;4946244;28;20043;-77
2023/05/26 01:40:44;;;;;;;25.15;4.40;;;8.10;99.90;;;;;;4947226;29;20062;-77
2023/05/26 01:43:37;;;;;;;26.80;4.25;;;8.00;99.90;;;;;;4930268;29;20047;-77
2023/05/26 01:46:34;;;;;;;27.48;5.00;;;8.00;99.90;;;;;;4928214;29;20056;-76
2023/05/26 01:49:04;;;;;;;25.88;4.40;;;8.00;99.90;;;;;;4939251;28;20415;-77
2023/05/26 01:51:33;;;;;;;36.10;4.90;;;8.40;99.90;;;;;;4934487;29;20051;-77
2023/05/26 01:54:01;;;;;;;21.85;3.67;;;7.90;99.90;;;;;;4947645;29;20050;-76
2023/05/26 01:56:30;;;;;;;26.27;4.93;;;8.00;99.90;;;;;;4962083;28;20051;-77
2023/05/26 01:58:57;;;;;;;23.67;3.70;;;7.90;99.90;;;;;;4946426;28;20047;-77
2023/05/26 02:01:27;;;;;;;25.08;4.22;;;7.90;99.90;;;;;;4946398;28;20053;-77
2023/05/26 02:03:53;;;;;;;28.25;4.28;;;7.90;99.90;;;;;;4946379;29;20452;-77
2023/05/26 02:06:19;;;;;;;16.95;3.50;;;7.90;99.90;;;;;;4947021;28;20077;-77
2023/05/26 02:08:45;;;;;;;17.77;3.90;;;8.30;99.90;;;;;;4945546;29;20043;-77
2023/05/26 02:11:14;;;;;;;20.05;4.07;;;7.80;99.90;;;;;;4945911;29;20078;-77
2023/05/26 02:13:40;;;;;;;26.42;3.95;;;7.80;99.90;;;;;;4947214;29;20051;-76
2023/05/26 02:16:08;;;;;;;26.33;4.45;;;7.80;99.90;;;;;;4948397;28;20052;-76
2023/05/26 02:18:36;;;;;;;26.88;4.60;;;7.80;99.90;;;;;;4946915;29;20141;-76
2023/05/26 02:21:01;;;;;;;22.27;4.00;;;7.70;99.90;;;;;;4925819;29;20499;-77
2023/05/26 02:23:27;;;;;;;31.13;4.40;;;7.70;99.90;;;;;;4937729;28;20055;-77
2023/05/26 02:25:53;;;;;;;25.65;4.13;;;7.70;99.90;;;;;;4943592;29;20412;-77
2023/05/26 02:28:18;;;;;;;21.63;3.30;;;8.20;99.90;;;;;;4943286;29;20051;-77
2023/05/26 02:30:44;;;;;;;27.77;3.63;;;7.70;99.90;;;;;;4946572;28;20125;-77
2023/05/26 02:33:10;;;;;;;30.95;5.10;;;7.70;99.90;;;;;;4947360;29;20410;-77
2023/05/26 02:35:36;;;;;;;23.55;4.32;;;7.60;99.90;;;;;;4945830;28;20043;-77
2023/05/26 02:38:02;;;;;;;24.63;4.00;;;7.60;99.90;;;;;;4947786;28;20055;-77
2023/05/26 02:40:27;;;;;;;23.38;3.88;;;7.60;99.90;;;;;;4945073;28;20035;-75
2023/05/26 02:42:53;;;;;;;27.58;4.53;;;7.60;99.90;;;;;;4942562;29;20562;-77
2023/05/26 02:45:19;;;;;;;21.42;4.47;;;7.60;99.90;;;;;;4933917;29;20542;-77
2023/05/26 02:47:45;;;;;;;26.27;4.32;;;7.60;99.90;;;;;;4946960;29;20054;-76
2023/05/26 02:50:11;;;;;;;27.45;4.88;;;7.50;99.90;;;;;;4945652;28;20583;-76
2023/05/26 02:52:37;;;;;;;22.70;3.63;;;7.50;99.90;;;;;;4947938;29;20385;-76
2023/05/26 02:55:03;;;;;;;20.33;3.70;;;7.50;99.90;;;;;;4947684;28;20179;-76
2023/05/26 02:57:29;;;;;;;23.42;3.97;;;7.60;99.90;;;;;;4954699;28;20079;-75
2023/05/26 02:59:54;;;;;;;24.02;4.20;;;7.50;99.90;;;;;;4945212;28;20094;-77
2023/05/26 03:02:20;;;;;;;24.48;3.92;;;7.50;99.90;;;;;;4944004;29;20051;-77
2023/05/26 03:04:46;;;;;;;25.80;3.85;;;7.50;99.90;;;;;;4930556;29;20042;-76
2023/05/26 03:07:12;;;;;;;29.02;4.13;;;7.40;99.90;;;;;;4948233;29;20122;-76
2023/05/26 03:09:38;;;;;;;20.67;4.25;;;7.40;99.90;;;;;;4930707;29;20074;-76
2023/05/26 03:12:05;;;;;;;21.80;4.03;;;7.90;99.90;;;;;;4932712;29;20039;-76
2023/05/26 03:14:31;;;;;;;19.17;3.95;;;7.40;99.90;;;;;;4947156;29;20114;-76
2023/05/26 03:16:56;;;;;;;22.40;4.05;;;7.40;99.90;;;;;;4946924;28;20039;-76
2023/05/26 03:19:22;;;;;;;24.80;4.47;;;7.40;99.90;;;;;;4948227;29;20047;-76
2023/05/26 03:21:48;;;;;;;21.27;3.72;;;7.40;99.90;;;;;;4951176;29;20484;-76
2023/05/26 03:24:13;;;;;;;30.83;4.57;;;7.50;99.90;;;;;;4934607;28;20051;-75
2023/05/26 03:26:39;;;;;;;20.92;4.00;;;7.40;99.90;;;;;;4951111;29;20054;-76
2023/05/26 03:29:05;;;;;;;22.70;3.88;;;7.30;99.90;;;;;;4945698;29;20035;-76
2023/05/26 03:31:31;;;;;;;21.35;3.55;;;7.30;99.90;;;;;;4961873;28;20446;-76
2023/05/26 03:33:56;;;;;;;23.40;4.05;;;7.30;99.90;;;;;;4947383;28;20047;-76
2023/05/26 03:36:22;;;;;;;26.38;4.22;;;7.20;99.90;;;;;;4943846;28;20496;-76
2023/05/26 03:38:48;;;;;;;25.80;4.35;;;7.20;99.90;;;;;;4947239;29;20858;-76
2023/05/26 03:41:13;;;;;;;27.17;3.80;;;7.20;99.90;;;;;;4948883;28;20039;-75
2023/05/26 03:43:39;;;;;;;25.67;4.18;;;7.20;99.90;;;;;;4950670;28;20146;-76
2023/05/26 03:46:05;;;;;;;22.52;3.85;;;7.20;99.90;;;;;;4950508;28;20047;-76
2023/05/26 03:48:31;;;;;;;23.17;4.25;;;7.20;99.90;;;;;;4947966;28;20047;-76
2023/05/26 03:50:57;;;;;;;26.50;4.43;;;7.20;99.90;;;;;;4946974;29;20396;-76
2023/05/26 03:53:24;;;;;;;26.60;5.00;;;7.20;99.90;;;;;;4944133;29;20078;-76
2023/05/26 03:55:50;;;;;;;28.80;4.38;;;7.20;99.90;;;;;;4949873;29;20055;-75
2023/05/26 03:58:16;;;;;;;25.42;4.13;;;7.20;99.90;;;;;;4953781;28;20094;-76
2023/05/26 04:00:41;;;;;;;18.70;3.58;;;7.30;99.90;;;;;;4949526;29;20736;-76
2023/05/26 04:03:07;;;;;;;19.70;3.70;;;7.80;99.90;;;;;;4951391;28;20126;-75
2023/05/26 04:05:33;;;;;;;23.50;4.30;;;7.20;99.90;;;;;;4932798;29;20499;-76
2023/05/26 04:07:58;;;;;;;20.88;3.90;;;7.20;99.90;;;;;;4932931;29;20035;-76
2023/05/26 04:10:24;;;;;;;25.98;4.80;;;7.20;99.90;;;;;;4949289;29;20058;-76
2023/05/26 04:12:50;;;;;;;23.70;4.28;;;7.20;99.90;;;;;;4949926;28;20045;-76
2023/05/26 04:15:15;;;;;;;22.30;4.25;;;7.30;99.90;;;;;;4949250;29;20062;-76
2023/05/26 04:17:42;;;;;;;26.35;5.38;;;7.30;99.90;;;;;;4956395;28;20039;-75
2023/05/26 04:20:10;;;;;;;31.23;4.38;;;7.30;99.90;;;;;;4934080;29;20055;-76
2023/05/26 04:22:37;;;;;;;29.83;3.92;;;7.30;99.90;;;;;;4948257;29;20056;-76
2023/05/26 04:25:04;;;;;;;19.05;3.92;;;7.40;99.90;;;;;;4948169;28;20110;-76
2023/05/26 04:27:30;;;;;;;22.45;4.30;;;7.40;99.90;;;;;;4943498;28;20056;-76
2023/05/26 04:29:58;;;;;;;25.83;4.30;;;7.50;99.90;;;;;;4946177;28;20459;-75
2023/05/26 04:32:27;;;;;;;25.77;5.53;;;7.50;99.90;;;;;;4946184;29;20063;-76
2023/05/26 04:34:53;;;;;;;21.60;4.00;;;7.60;99.90;;;;;;4931103;29;20055;-76
2023/05/26 04:37:19;;;;;;;33.55;4.72;;;7.70;99.90;;;;;;4947264;29;20141;-77
2023/05/26 04:39:44;;;;;;;26.35;4.28;;;7.90;99.90;;;;;;4962764;28;20075;-77
2023/05/26 04:42:12;;;;;;;27.70;4.43;;;8.00;99.90;;;;;;4947689;29;20761;-77
2023/05/26 04:44:38;;;;;;;25.35;4.45;;;8.20;99.90;;;;;;4948427;29;20062;-77
2023/05/26 04:47:08;;;;;;;34.25;5.43;;;8.40;99.90;;;;;;4947071;28;20040;-77
2023/05/26 04:49:37;;;;;;;23.00;4.90;;;8.50;99.90;;;;;;4949823;28;20103;-77
2023/05/26 04:52:03;;;;;;;25.13;4.32;;;8.70;99.90;;;;;;4944646;28;20503;-77
2023/05/26 04:54:29;;;;;;;23.30;4.30;;;8.90;99.90;;;;;;4931806;29;20209;-77
2023/05/26 04:56:55;;;;;;;18.85;4.63;;;9.10;99.90;;;;;;4948044;29;20055;-77
2023/05/26 04:59:21;;;;;;;23.55;4.55;;;9.20;99.90;;;;;;4947828;29;20051;-77
2023/05/26 05:01:50;;;;;;;25.73;4.22;;;9.40;99.90;;;;;;4946104;29;20051;-78
2023/05/26 05:04:16;;;;;;;22.48;4.82;;;9.60;99.90;;;;;;4946199;28;20051;-77
2023/05/26 05:06:42;;;;;;;26.30;4.85;;;9.80;99.90;;;;;;4946325;29;20150;-78
2023/05/26 05:09:08;;;;;;;31.58;4.82;;;9.90;99.90;;;;;;4929387;29;20053;-77
2023/05/26 05:11:34;;;;;;;30.65;5.00;;;10.10;99.90;;;;;;4939313;28;20043;-78
2023/05/26 05:14:00;;;;;;;25.63;4.60;;;10.20;99.90;;;;;;4942878;28;20047;-78
2023/05/26 05:16:25;;;;;;;34.65;6.20;;;10.40;99.90;;;;;;4948818;28;20083;-75
2023/05/26 05:18:51;;;;;;;27.55;5.40;;;10.50;99.90;;;;;;4944746;29;20066;-79
2023/05/26 05:21:17;;;;;;;21.02;4.85;;;10.60;99.90;;;;;;4931259;29;20487;-79
2023/05/26 05:23:43;;;;;;;25.20;4.35;;;10.50;99.90;;;;;;4925765;29;20142;-78
2023/05/26 05:26:08;;;;;;;35.95;5.65;;;10.50;99.90;;;;;;4932762;28;20094;-78
2023/05/26 05:28:34;;;;;;;27.40;5.22;;;10.40;99.90;;;;;;4927961;28;20062;-79
2023/05/26 05:31:00;;;;;;;29.98;4.80;;;10.30;99.90;;;;;;4941894;28;20043;-78
2023/05/26 05:33:27;;;;;;;29.27;4.28;;;10.30;99.90;;;;;;4926234;28;20058;-79
2023/05/26 05:35:53;;;;;;;23.40;4.53;;;10.30;99.90;;;;;;4938490;28;20043;-79
2023/05/26 05:38:19;;;;;;;24.48;4.63;;;10.30;99.90;;;;;;4939669;28;20039;-79
2023/05/26 05:40:45;;;;;;;29.00;4.70;;;10.30;99.90;;;;;;4937281;28;20465;-79
2023/05/26 05:43:14;;;;;;;19.80;3.83;;;10.30;99.90;;;;;;4932077;28;20079;-82
2023/05/26 05:45:45;;;;;;;28.40;5.18;;;10.20;99.90;;;;;;4932184;28;20047;-80
2023/05/26 05:48:11;;;;;;;29.38;5.05;;;10.30;99.90;;;;;;4934127;28;20154;-80
2023/05/26 05:50:37;;;;;;;30.25;4.90;;;10.30;99.90;;;;;;4933999;28;20555;-80
2023/05/26 05:53:03;;;;;;;29.55;5.43;;;10.30;99.90;;;;;;4957913;28;20420;-78
2023/05/26 05:55:29;;;;;;;26.75;4.70;;;10.30;99.90;;;;;;4933473;28;20062;-81
2023/05/26 05:57:56;;;;;;;24.08;3.63;;;10.30;99.90;;;;;;4935770;28;20516;-80
2023/05/26 06:00:21;;;;;;;22.63;4.40;;;10.30;99.90;;;;;;4951681;28;20059;-80
2023/05/26 06:02:47;;;;;;;21.27;4.38;;;10.40;99.90;;;;;;4925924;28;20050;-81
2023/05/26 06:05:13;;;;;;;23.55;4.13;;;10.40;99.90;;;;;;4942190;28;20496;-78
2023/05/26 06:07:39;;;;;;;34.42;4.53;;;10.40;99.90;;;;;;4941523;28;20043;-79
2023/05/26 06:10:07;;;;;;;25.27;3.75;;;10.50;99.90;;;;;;4924597;28;20035;-79
2023/05/26 06:12:33;;;;;;;22.05;3.65;;;10.50;99.90;;;;;;4934314;28;20039;-78
2023/05/26 06:14:58;;;;;;;27.83;4.20;;;11.00;99.90;;;;;;4936044;28;20066;-79
2023/05/26 06:17:24;;;;;;;27.80;4.35;;;10.50;99.90;;;;;;4932515;28;20047;-80
2023/05/26 06:19:50;;;;;;;22.13;4.53;;;10.50;99.90;;;;;;4930006;28;20101;-79
2023/05/26 06:22:15;;;;;;;26.48;4.57;;;10.80;99.90;;;;;;4932681;28;20063;-78
2023/05/26 06:24:41;;;;;;;24.02;4.45;;;10.70;99.90;;;;;;4931877;28;20060;-80
2023/05/26 06:27:07;;;;;;;25.60;4.45;;;10.80;99.90;;;;;;4946298;28;20043;-80
2023/05/26 06:29:33;;;;;;;24.05;4.25;;;10.80;99.90;;;;;;4933054;28;20059;-80
2023/05/26 06:31:59;;;;;;;24.92;4.00;;;10.90;99.90;;;;;;4907569;28;20043;-80
2023/05/26 06:34:25;;;;;;;26.02;4.13;;;11.00;99.90;;;;;;4931479;28;20094;-80
2023/05/26 06:36:51;;;;;;;24.02;4.18;;;11.00;99.90;;;;;;4930376;28;20496;-80
2023/05/26 06:39:17;;;;;;;21.05;4.82;;;11.10;99.90;;;;;;4932829;28;20134;-79
2023/05/26 06:41:42;;;;;;;28.15;4.20;;;11.10;99.90;;;;;;4922821;28;20130;-79
2023/05/26 06:44:08;;;;;;;25.02;4.43;;;11.10;99.90;;;;;;4938181;28;20419;-80
2023/05/26 06:46:34;;;;;;;30.88;4.00;;;11.10;99.90;;;;;;4938395;28;20043;-80
2023/05/26 06:48:59;;;;;;;26.85;4.15;;;11.10;99.90;;;;;;4952436;28;20051;-80
2023/05/26 06:51:25;;;;;;;28.58;4.50;;;11.10;99.90;;;;;;4946816;28;21832;-80
2023/05/26 06:53:51;;;;;;;24.33;4.25;;;11.20;99.90;;;;;;4934006;28;20043;-81
2023/05/26 06:56:17;;;;;;;24.98;4.68;;;11.20;99.90;;;;;;4935463;28;20052;-80
2023/05/26 06:58:42;;;;;;;21.50;4.15;;;11.20;99.90;;;;;;4934627;28;20129;-79
2023/05/26 07:01:08;;;;;;;22.02;3.97;;;11.20;99.90;;;;;;4937075;28;20183;-79
2023/05/26 07:03:34;;;;;;;18.00;3.80;;;11.30;99.90;;;;;;4949166;28;20036;-79
2023/05/26 07:06:00;;;;;;;27.80;3.85;;;11.30;99.90;;;;;;4950842;28;20047;-81
2023/05/26 07:08:26;;;;;;;21.35;3.55;;;11.40;99.90;;;;;;4948140;28;20087;-81
2023/05/26 07:10:52;;;;;;;22.35;3.30;;;11.40;99.90;;;;;;4937126;28;20046;-78
2023/05/26 07:13:19;;;;;;;20.60;4.30;;;11.40;99.90;;;;;;4947001;28;20047;-81
2023/05/26 07:15:45;;;;;;;23.08;3.28;;;11.50;99.90;;;;;;4943068;28;20043;-82
2023/05/26 07:18:13;;;;;;;20.88;3.22;;;11.60;99.90;;;;;;4959460;28;20098;-82
2023/05/26 07:20:39;;;;;;;24.33;4.03;;;11.70;99.90;;;;;;4942221;28;20051;-81
2023/05/26 07:23:05;;;;;;;15.48;3.13;;;11.80;99.90;;;;;;4941104;28;20059;-82
2023/05/26 07:25:30;;;;;;;15.02;3.35;;;11.90;99.90;;;;;;4943870;28;21132;-82
2023/05/26 07:27:56;;;;;;;16.45;3.53;;;12.00;99.90;;;;;;4946901;28;20132;-83
2023/05/26 07:30:22;;;;;;;21.77;3.70;;;12.10;99.90;;;;;;4960112;28;20135;-83
2023/05/26 07:32:48;;;;;;;16.13;3.67;;;12.20;99.90;;;;;;4946024;28;20100;-80
2023/05/26 07:35:14;;;;;;;18.30;3.30;;;12.30;99.90;;;;;;4928488;28;20055;-81
2023/05/26 07:37:41;;;;;;;24.10;4.00;;;12.40;99.90;;;;;;4945863;28;20055;-79
2023/05/26 07:40:07;;;;;;;20.88;3.20;;;12.50;99.90;;;;;;4942234;28;20500;-81
2023/05/26 07:42:38;;;;;;;24.50;4.35;;;12.60;99.90;;;;;;4926406;29;20081;-82
2023/05/26 07:45:05;;;;;;;14.95;3.20;;;12.70;99.90;;;;;;4948161;28;20079;-83
2023/05/26 07:47:31;;;;;;;18.48;4.15;;;12.70;99.90;;;;;;4945382;28;21859;-84
2023/05/26 07:50:00;;;;;;;18.90;3.83;;;12.80;99.90;;;;;;4946489;28;20051;-82
2023/05/26 07:52:26;;;;;;;19.50;4.25;;;13.00;99.90;;;;;;4964779;28;20051;-85
2023/05/26 07:54:51;;;;;;;22.38;3.92;;;13.10;99.90;;;;;;4947463;29;20500;-82
2023/05/26 07:57:17;;;;;;;20.08;3.40;;;13.00;99.90;;;;;;4946389;29;20420;-81
2023/05/26 07:59:43;;;;;;;17.13;3.25;;;13.00;99.90;;;;;;4947727;29;20703;-82
2023/05/26 08:02:10;;;;;;;15.85;3.10;;;13.00;99.90;;;;;;4948551;28;20050;-82
2023/05/26 08:04:37;;;;;;;21.17;3.78;;;13.10;99.90;;;;;;4932469;29;20157;-80
2023/05/26 08:07:03;;;;;;;22.67;3.63;;;13.10;99.90;;;;;;4947214;29;20058;-83
2023/05/26 08:09:29;;;;;;;14.15;2.72;;;13.20;99.90;;;;;;4946465;29;20059;-86
2023/05/26 08:11:54;;;;;;;18.00;3.38;;;13.30;99.90;;;;;;4947768;28;20046;-82
2023/05/26 08:14:22;;;;;;;24.30;3.88;;;13.30;99.90;;;;;;4948716;28;20043;-81
2023/05/26 08:16:48;;;;;;;18.48;3.58;;;13.40;99.90;;;;;;4951773;28;20565;-82
2023/05/26 08:19:14;;;;;;;17.48;3.10;;;13.40;99.90;;;;;;4947403;29;20106;-83
2023/05/26 08:21:39;;;;;;;18.70;3.35;;;13.50;99.90;;;;;;4946585;28;20455;-83
2023/05/26 08:24:05;;;;;;;18.50;3.53;;;13.60;99.90;;;;;;4950897;28;20551;-82
2023/05/26 08:26:31;;;;;;;13.82;3.15;;;13.60;99.90;;;;;;4926998;29;20059;-85
2023/05/26 08:28:57;;;;;;;16.65;3.40;;;13.60;99.90;;;;;;4974877;28;20050;-82
2023/05/26 08:31:22;;;;;;;17.70;2.95;;;13.70;99.90;;;;;;4954375;28;20043;-78
2023/05/26 08:33:48;;;;;;;18.98;3.30;;;13.70;99.90;;;;;;4946203;28;20157;-78
2023/05/26 08:36:14;;;;;;;19.25;2.92;;;13.70;99.90;;;;;;4930779;28;20062;-76
2023/05/26 08:38:40;;;;;;;22.27;3.47;;;13.70;99.90;;;;;;4951086;28;20046;-79
2023/05/26 08:41:06;;;;;;;17.88;3.92;;;13.70;99.90;;;;;;4954249;28;20054;-76
2023/05/26 08:44:03;;;;;;;16.10;3.08;;;13.70;99.90;;;;;;4947325;29;20043;-79
2023/05/26 08:46:32;;;;;;;18.17;3.35;;;14.00;99.90;;;;;;4939344;29;20053;-79
2023/05/26 08:48:58;;;;;;;16.02;2.83;;;13.90;99.90;;;;;;4930041;29;20054;-79
2023/05/26 08:51:24;;;;;;;19.08;3.15;;;13.80;99.90;;;;;;4959769;28;20047;-80
2023/05/26 08:53:50;;;;;;;22.95;3.78;;;13.70;99.90;;;;;;4949084;29;20066;-78
2023/05/26 08:56:16;;;;;;;17.13;3.40;;;13.90;99.90;;;;;;4948326;29;20050;-80
2023/05/26 08:58:43;;;;;;;14.57;3.42;;;13.90;99.90;;;;;;4948018;29;20079;-80
2023/05/26 09:01:10;;;;;;;20.42;3.47;;;13.90;99.90;;;;;;4947983;29;20051;-81
2023/05/26 09:03:39;;;;;;;15.43;3.22;;;14.00;99.90;;;;;;4948239;29;20063;-80
2023/05/26 09:06:05;;;;;;;19.98;3.30;;;14.20;99.90;;;;;;4932177;29;20704;-80
2023/05/26 09:08:31;;;;;;;15.10;3.00;;;14.10;99.90;;;;;;4945047;28;20078;-81
2023/05/26 09:10:57;;;;;;;21.33;2.95;;;14.20;99.90;;;;;;4931812;29;20134;-77
2023/05/26 09:13:23;;;;;;;19.73;3.70;;;14.30;99.90;;;;;;4924511;29;20657;-79
2023/05/26 09:15:52;;;;;;;22.90;3.80;;;14.30;99.90;;;;;;4949480;28;20878;-80
2023/05/26 09:18:19;;;;;;;17.67;3.33;;;14.30;99.90;;;;;;4947505;28;20055;-79
2023/05/26 09:20:47;;;;;;;16.85;3.40;;;14.30;99.90;;;;;;4933083;28;20059;-82
2023/05/26 09:23:15;;;;;;;15.52;2.70;;;14.40;99.90;;;;;;4939469;28;20055;-84
2023/05/26 09:25:43;;;;;;;19.92;4.22;;;14.40;99.90;;;;;;4953311;28;20059;-80
2023/05/26 09:28:11;;;;;;;20.33;3.65;;;14.50;99.90;;;;;;4942257;28;20043;-83
2023/05/26 09:30:41;;;;;;;14.15;3.63;;;14.50;99.90;;;;;;4925099;28;20449;-84
2023/05/26 09:33:17;;;;;;;22.00;3.75;;;14.50;99.90;;;;;;4942915;28;20054;-87
2023/05/26 09:35:46;;;;;;;24.73;3.90;;;14.50;99.90;;;;;;4942046;28;21590;-80
2023/05/26 09:38:15;;;;;;;20.15;3.60;;;14.40;99.90;;;;;;4943828;28;20035;-87
2023/05/26 09:40:42;;;;;;;18.45;4.25;;;14.40;99.90;;;;;;4944306;28;20047;-81
2023/05/26 09:43:08;;;;;;;16.65;3.72;;;14.30;99.90;;;;;;4958832;28;20596;-84
2023/05/26 09:45:35;;;;;;;23.52;3.67;;;14.30;99.90;;;;;;4929697;28;20079;-84
2023/05/26 09:48:05;;;;;;;16.25;3.75;;;14.30;99.90;;;;;;4948074;28;20039;-84
2023/05/26 09:50:32;;;;;;;20.87;3.87;;;14.30;99.90;;;;;;4959845;28;20156;-84
2023/05/26 09:53:03;;;;;;;20.35;3.97;;;14.40;99.90;;;;;;4937605;28;20157;-83
2023/05/26 09:55:30;;;;;;;16.35;3.50;;;14.40;99.90;;;;;;4939744;28;20515;-83
2023/05/26 09:58:04;;;;;;;21.85;4.22;;;14.60;99.90;;;;;;4923103;28;20739;-82
2023/05/26 10:00:35;;;;;;;20.45;3.63;;;14.60;99.90;;;;;;4919503;28;20571;-87
2023/05/26 10:03:03;;;;;;;18.25;4.03;;;14.50;99.90;;;;;;4930095;28;20113;-87
2023/05/26 10:05:34;;;;;;;16.33;3.47;;;14.60;99.90;;;;;;4925956;28;20047;-83
2023/05/26 10:08:00;;;;;;;18.02;3.70;;;14.60;99.90;;;;;;4942161;28;20047;-78
2023/05/26 10:10:32;;;;;;;17.02;3.60;;;14.60;99.90;;;;;;4936490;28;21300;-78
2023/05/26 10:12:58;;;;;;;17.83;3.50;;;14.50;99.90;;;;;;4926689;28;20065;-78
2023/05/26 10:15:25;;;;;;;20.75;3.67;;;14.50;99.90;;;;;;4955308;28;20903;-75
2023/05/26 10:17:51;;;;;;;14.88;3.58;;;14.60;99.90;;;;;;4923747;28;20503;-76
2023/05/26 10:20:18;;;;;;;16.58;3.45;;;14.60;99.90;;;;;;4956223;28;20110;-76
2023/05/26 10:23:09;;;;;;;22.35;3.55;;;14.60;99.90;;;;;;4937494;28;20059;-77
2023/05/26 10:26:23;;;;;;;20.35;3.38;;;14.60;99.90;;;;;;4934119;28;20104;-81
2023/05/26 10:28:57;;;;;;;20.58;3.65;;;14.60;99.90;;;;;;4938090;28;20153;-81
2023/05/26 10:31:34;;;;;;;16.85;3.58;;;14.70;99.90;;;;;;4935666;28;20125;-80
2023/05/26 10:34:00;;;;;;;18.40;4.55;;;14.70;99.90;;;;;;4940428;28;20046;-83
2023/05/26 10:36:28;;;;;;;20.35;3.97;;;14.80;99.90;;;;;;4956351;28;20063;-79
2023/05/26 10:38:55;;;;;;;18.23;3.20;;;14.70;99.90;;;;;;4918062;28;21222;-78
2023/05/26 10:41:50;;;;;;;15.07;3.40;;;14.60;99.90;;;;;;4939522;28;20094;-79
2023/05/26 10:44:45;;;;;;;18.35;3.33;;;14.70;99.90;;;;;;4940719;28;20050;-77
2023/05/26 10:47:15;;;;;;;17.52;3.63;;;14.70;99.90;;;;;;4941057;28;20055;-77
2023/05/26 10:49:42;;;;;;;16.80;3.22;;;14.70;99.90;;;;;;4953225;28;20051;-80
2023/05/26 10:52:13;;;;;;;18.27;3.65;;;14.80;99.90;;;;;;4960140;28;20133;-82
2023/05/26 10:54:42;;;;;;;15.38;3.30;;;14.80;99.90;;;;;;4944068;28;20044;-80
2023/05/26 10:57:31;;;;;;;17.83;3.55;;;14.80;99.90;;;;;;4944088;28;20396;-83
2023/05/26 10:59:58;;;;;;;15.60;3.55;;;14.80;99.90;;;;;;4941355;28;20043;-81
2023/05/26 11:02:24;;;;;;;16.90;3.28;;;14.80;99.90;;;;;;4926749;28;20105;-82
2023/05/26 11:04:50;;;;;;;25.27;4.15;;;14.90;99.90;;;;;;4940605;28;20047;-80
2023/05/26 11:07:27;;;;;;;15.52;3.45;;;14.90;99.90;;;;;;4936273;28;20058;-79
2023/05/26 11:10:02;;;;;;;19.55;3.40;;;14.90;99.90;;;;;;4957187;28;20082;-86
2023/05/26 11:12:36;;;;;;;18.00;4.35;;;15.00;99.90;;;;;;4939001;28;20051;-88
2023/05/26 11:15:30;;;;;;;15.55;2.85;;;15.00;99.90;;;;;;4945414;28;21816;-81
2023/05/26 11:18:01;;;;;;;21.60;3.92;;;15.00;99.90;;;;;;4942411;28;20051;-82
2023/05/26 11:20:27;;;;;;;21.93;3.87;;;15.00;99.90;;;;;;4927445;28;20047;-84
2023/05/26 11:22:53;;;;;;;18.73;3.78;;;15.10;99.90;;;;;;4942833;28;20361;-82
2023/05/26 11:25:19;;;;;;;17.25;3.70;;;15.10;99.90;;;;;;4946154;28;20059;-84
2023/05/26 11:27:48;;;;;;;21.20;3.97;;;15.10;99.90;;;;;;4941917;28;20854;-87
2023/05/26 11:30:15;;;;;;;19.85;3.40;;;15.10;99.90;;;;;;4954977;28;20130;-80
2023/05/26 11:32:48;;;;;;;20.73;4.32;;;15.10;99.90;;;;;;4940245;28;20051;-80
2023/05/26 11:35:25;;;;;;;18.02;3.88;;;15.10;99.90;;;;;;4959245;28;20149;-86
2023/05/26 11:37:51;;;;;;;16.58;3.45;;;15.20;99.90;;;;;;4942042;28;20051;-88
2023/05/26 11:40:17;;;;;;;16.17;3.35;;;15.20;99.90;;;;;;4946043;28;20043;-85
2023/05/26 11:42:52;;;;;;;17.63;3.78;;;15.20;99.90;;;;;;4959655;28;20123;-86
2023/05/26 11:45:18;;;;;;;18.00;3.85;;;15.20;99.90;;;;;;4945187;28;20174;-88
2023/05/26 11:47:43;;;;;;;18.77;3.42;;;15.20;99.90;;;;;;4947685;28;20117;-87
2023/05/26 11:50:11;;;;;;;13.60;3.58;;;15.30;99.90;;;;;;4942577;28;20045;-83
2023/05/26 11:52:47;;;;;;;14.80;3.45;;;15.20;99.90;;;;;;4944354;28;20039;-86
2023/05/26 11:55:15;;;;;;;19.05;4.47;;;15.30;99.90;;;;;;4944267;28;20732;-87
2023/05/26 11:57:44;;;;;;;22.88;4.50;;;15.30;99.90;;;;;;4962217;28;20097;-86
2023/05/26 12:00:17;;;;;;;17.98;3.78;;;15.60;99.90;;;;;;4948754;28;20047;-89
2023/05/26 12:02:44;;;;;;;23.05;4.35;;;15.30;99.90;;;;;;4951006;28;20150;-87
2023/05/26 12:05:17;;;;;;;16.02;3.85;;;15.40;99.90;;;;;;4963514;28;20043;-87
2023/05/26 12:07:43;;;;;;;16.48;3.30;;;15.30;99.90;;;;;;4948205;28;20054;-83
2023/05/26 12:10:09;;;;;;;19.48;3.75;;;15.40;99.90;;;;;;4946530;28;20047;-83
2023/05/26 12:12:51;;;;;;;15.77;3.65;;;15.40;99.90;;;;;;4944773;28;20084;-82
2023/05/26 12:15:21;;;;;;;21.15;4.40;;;15.50;99.90;;;;;;4946433;28;20123;-87
2023/05/26 12:17:49;;;;;;;20.40;4.45;;;15.50;99.90;;;;;;4944697;28;20062;-85
2023/05/26 12:20:17;;;;;;;19.17;3.75;;;15.50;99.90;;;;;;4947407;28;20048;-83
2023/05/26 12:22:44;;;;;;;20.95;4.70;;;15.40;99.90;;;;;;4938840;28;20394;-89
2023/05/26 12:25:10;;;;;;;18.30;3.67;;;15.40;99.90;;;;;;4947176;28;20110;-86
2023/05/26 12:27:39;;;;;;;18.67;4.20;;;15.40;99.90;;;;;;4945675;28;20089;-80
2023/05/26 12:30:21;;;;;;;16.23;3.72;;;15.50;99.90;;;;;;4945531;28;20508;-82
2023/05/26 12:32:50;;;;;;;20.10;3.70;;;15.50;99.90;;;;;;4948122;28;20054;-84
2023/05/26 12:35:16;;;;;;;21.95;4.53;;;15.50;99.90;;;;;;4932380;28;20051;-83
2023/05/26 12:37:42;;;;;;;19.65;4.45;;;15.40;99.90;;;;;;4943947;28;20499;-82
2023/05/26 12:40:09;;;;;;;23.98;4.20;;;15.40;99.90;;;;;;4959375;28;20472;-85
2023/05/26 12:42:36;;;;;;;19.50;4.28;;;15.40;99.90;;;;;;4957705;28;20039;-87
2023/05/26 12:45:02;;;;;;;22.15;3.78;;;15.40;99.90;;;;;;4958961;28;20629;-84